Time;durP1;ratioP1;P1;durP2;ratioP2;P2;SDS_P1;SDS_P2;PMS_P1;PMS_P2;Temp;Humidity;BMP_temperature;BMP_pressure;BME280_temperature;BME280_humidity;BME280_pressure;Samples;Min_cycle;Max_cycle;Signal;HPM_P1;HPM_P2
2022/09/11 00:01:13;;;;;;;1.63;1.33;;;11.60;99.90;;;;;;5058420;28;20041;-71
2022/09/11 00:03:41;;;;;;;0.75;0.75;;;11.60;99.90;;;;;;5059217;28;20037;-71
2022/09/11 00:06:10;;;;;;;2.90;1.75;;;11.60;99.90;;;;;;5059689;28;20056;-71
2022/09/11 00:08:38;;;;;;;1.65;1.33;;;11.70;99.90;;;;;;5059668;28;20045;-71
2022/09/11 00:11:08;;;;;;;1.85;1.48;;;11.70;99.90;;;;;;5059138;28;20487;-70
2022/09/11 00:13:36;;;;;;;1.92;1.27;;;11.80;99.90;;;;;;5061113;28;20040;-71
2022/09/11 00:16:04;;;;;;;1.92;1.75;;;11.80;99.90;;;;;;5060630;28;20045;-71
2022/09/11 00:18:30;;;;;;;2.20;1.50;;;11.90;99.90;;;;;;5059890;28;20072;-71
2022/09/11 00:20:57;;;;;;;1.08;0.57;;;11.90;99.90;;;;;;5041500;28;20113;-71
2022/09/11 00:23:25;;;;;;;3.70;1.27;;;11.90;99.90;;;;;;5059468;28;20043;-71
2022/09/11 00:25:51;;;;;;;0.98;0.60;;;11.80;99.90;;;;;;5059168;28;20045;-71
2022/09/11 00:28:21;;;;;;;0.80;0.57;;;11.70;99.90;;;;;;5059223;28;20048;-71
2022/09/11 00:30:56;;;;;;;1.52;1.15;;;11.70;99.90;;;;;;5058628;28;20056;-71
2022/09/11 00:33:21;;;;;;;2.78;0.75;;;11.60;99.90;;;;;;5040964;28;20052;-71
2022/09/11 00:35:55;;;;;;;0.63;0.52;;;11.60;99.90;;;;;;5058369;28;20037;-71
2022/09/11 00:38:21;;;;;;;2.63;0.88;;;11.50;99.90;;;;;;5058836;28;20056;-70
2022/09/11 00:40:47;;;;;;;0.30;0.30;;;11.40;99.90;;;;;;5058815;28;20410;-71
2022/09/11 00:43:16;;;;;;;0.88;0.80;;;11.30;99.90;;;;;;5058450;28;20075;-71
2022/09/11 00:45:45;;;;;;;1.55;1.25;;;11.40;99.90;;;;;;5058252;28;20040;-71
2022/09/11 00:48:14;;;;;;;2.50;1.88;;;11.50;99.90;;;;;;5061692;28;20075;-71
2022/09/11 00:50:42;;;;;;;1.25;1.02;;;11.50;99.90;;;;;;5062356;28;20045;-71
2022/09/11 00:53:10;;;;;;;1.20;1.10;;;11.50;99.90;;;;;;5061573;28;20116;-70
2022/09/11 00:55:39;;;;;;;2.03;1.70;;;11.60;99.90;;;;;;5061729;28;20049;-71
2022/09/11 00:58:15;;;;;;;2.53;1.55;;;11.60;99.90;;;;;;5061699;28;20068;-71
2022/09/11 01:00:43;;;;;;;0.73;0.50;;;11.70;99.90;;;;;;5043476;28;20051;-71
2022/09/11 01:03:09;;;;;;;1.25;1.00;;;11.70;99.90;;;;;;5061672;28;20041;-71
2022/09/11 01:05:38;;;;;;;1.17;0.82;;;11.80;99.90;;;;;;5061660;28;20132;-71
2022/09/11 01:08:05;;;;;;;2.40;2.03;;;12.00;99.90;;;;;;5061335;28;20037;-71
2022/09/11 01:10:59;;;;;;;2.35;2.15;;;12.30;99.90;;;;;;5061919;28;20060;-71
2022/09/11 01:13:46;;;;;;;1.48;1.30;;;12.50;99.90;;;;;;5050187;28;20049;-71
2022/09/11 01:16:18;;;;;;;;;;;12.40;99.90;;;;;;5061516;28;20098;-70
2022/09/11 01:19:20;;;;;;;0.63;0.63;;;12.40;99.90;;;;;;5061577;28;19924;-71
2022/09/11 01:22:25;;;;;;;1.05;0.95;;;12.30;99.90;;;;;;5061805;28;20044;-71
2022/09/11 01:25:14;;;;;;;2.35;1.23;;;12.20;99.90;;;;;;5061871;28;20072;-71
2022/09/11 01:27:49;;;;;;;2.00;1.42;;;12.20;99.90;;;;;;5061294;28;20079;-71
2022/09/11 01:30:18;;;;;;;2.15;1.05;;;12.20;99.90;;;;;;5061463;28;20056;-71
2022/09/11 01:33:05;;;;;;;1.17;0.75;;;12.20;99.90;;;;;;5043587;28;20045;-71
2022/09/11 01:35:40;;;;;;;2.15;1.73;;;12.20;99.90;;;;;;5062002;28;20053;-71
2022/09/11 01:38:12;;;;;;;0.70;0.70;;;12.20;99.90;;;;;;5062019;28;20614;-71
2022/09/11 01:40:48;;;;;;;2.88;1.77;;;12.20;99.90;;;;;;5061887;28;20053;-71
2022/09/11 01:43:25;;;;;;;2.05;1.02;;;12.10;99.90;;;;;;5062051;28;20076;-71
2022/09/11 01:45:53;;;;;;;0.63;0.63;;;12.00;99.90;;;;;;5043657;28;20076;-71
2022/09/11 01:48:25;;;;;;;1.25;1.15;;;11.90;99.90;;;;;;5060437;28;20464;-71
2022/09/11 01:50:53;;;;;;;2.58;1.60;;;11.80;99.90;;;;;;5060527;28;20095;-70
2022/09/11 01:53:22;;;;;;;0.47;0.30;;;11.70;99.90;;;;;;5060498;28;20083;-71
2022/09/11 01:58:28;;;;;;;1.15;0.70;;;11.60;99.90;;;;;;5059832;22;20057;-75
2022/09/11 02:01:09;;;;;;;0.30;0.30;;;11.60;99.90;;;;;;5036998;28;20041;-75
2022/09/11 02:03:49;;;;;;;1.15;0.80;;;11.60;99.90;;;;;;5038278;28;20053;-75
2022/09/11 02:06:20;;;;;;;2.47;1.83;;;11.60;99.90;;;;;;5037380;28;20068;-75
2022/09/11 02:09:13;;;;;;;1.48;0.77;;;11.60;99.90;;;;;;5038657;28;20492;-75
2022/09/11 02:11:41;;;;;;;2.60;1.75;;;11.70;99.90;;;;;;5030489;28;20567;-76
2022/09/11 02:14:22;;;;;;;1.85;1.48;;;11.80;99.90;;;;;;5037748;28;20120;-76
2022/09/11 02:17:05;;;;;;;3.08;1.52;;;11.80;99.90;;;;;;5039618;28;20045;-75
2022/09/11 02:19:31;;;;;;;1.05;0.77;;;11.80;99.90;;;;;;5039011;28;20056;-76
2022/09/11 02:21:57;;;;;;;0.30;0.30;;;11.80;99.90;;;;;;5038283;28;20046;-75
2022/09/11 02:24:24;;;;;;;1.40;1.30;;;11.70;99.90;;;;;;5038192;28;20412;-76
2022/09/11 02:27:09;;;;;;;1.83;1.20;;;11.70;99.90;;;;;;5038237;28;20056;-74
2022/09/11 02:29:38;;;;;;;1.70;0.85;;;11.70;99.90;;;;;;5037795;28;20049;-74
2022/09/11 02:32:04;;;;;;;1.98;0.85;;;11.60;99.90;;;;;;5026125;28;20038;-76
2022/09/11 02:34:33;;;;;;;2.13;1.27;;;11.50;99.90;;;;;;5018403;28;20037;-75
2022/09/11 02:37:07;;;;;;;0.90;0.80;;;11.40;99.90;;;;;;5001125;28;20046;-75
2022/09/11 02:40:03;;;;;;;0.60;0.60;;;11.40;99.90;;;;;;5018737;28;20129;-75
2022/09/11 02:42:54;;;;;;;0.32;0.32;;;11.40;99.90;;;;;;5018491;28;20057;-75
2022/09/11 02:45:53;;;;;;;0.52;0.50;;;11.30;99.90;;;;;;5018782;28;20420;-76
2022/09/11 02:48:55;;;;;;;0.35;0.20;;;11.30;99.90;;;;;;5000664;28;20045;-76
2022/09/11 02:51:48;;;;;;;1.30;1.20;;;11.40;99.90;;;;;;5018474;28;20104;-76
2022/09/11 02:54:44;;;;;;;0.68;0.28;;;11.30;99.90;;;;;;5018921;28;20049;-75
2022/09/11 02:57:27;;;;;;;0.98;0.70;;;11.30;99.90;;;;;;5018841;28;20064;-74
2022/09/11 02:59:59;;;;;;;0.98;0.77;;;11.20;99.90;;;;;;5019006;28;20052;-76
2022/09/11 03:02:26;;;;;;;1.90;0.85;;;11.10;99.90;;;;;;5027965;28;20125;-77
2022/09/11 03:04:52;;;;;;;0.98;0.88;;;11.10;99.90;;;;;;5038572;28;20045;-77
2022/09/11 03:07:18;;;;;;;1.00;0.77;;;11.00;99.90;;;;;;5038409;28;20108;-75
2022/09/11 03:09:43;;;;;;;4.10;1.73;;;11.00;99.90;;;;;;5037909;28;20069;-76
2022/09/11 03:12:09;;;;;;;2.53;1.45;;;11.00;99.90;;;;;;5037902;28;20101;-75
2022/09/11 03:14:35;;;;;;;2.13;1.45;;;11.30;99.90;;;;;;5038047;28;20152;-75
2022/09/11 03:17:01;;;;;;;0.30;0.30;;;11.00;99.90;;;;;;5038245;28;20116;-75
2022/09/11 03:19:27;;;;;;;0.50;0.50;;;10.90;99.90;;;;;;5021601;28;20092;-74
2022/09/11 03:21:53;;;;;;;1.13;0.88;;;10.90;99.90;;;;;;5038804;28;20067;-75
2022/09/11 03:24:18;;;;;;;0.65;0.65;;;10.80;99.90;;;;;;5038666;28;20408;-76
2022/09/11 03:26:44;;;;;;;1.38;0.70;;;10.80;99.90;;;;;;5038546;28;20124;-76
2022/09/11 03:29:10;;;;;;;1.10;0.93;;;10.70;99.90;;;;;;5038254;28;20092;-74
2022/09/11 03:31:35;;;;;;;3.35;1.88;;;10.80;99.90;;;;;;5038450;28;20160;-76
2022/09/11 03:34:01;;;;;;;1.58;1.17;;;10.70;99.90;;;;;;5038583;28;20045;-74
2022/09/11 03:36:27;;;;;;;0.88;0.85;;;10.70;99.90;;;;;;5038263;28;20064;-75
2022/09/11 03:38:54;;;;;;;0.17;0.17;;;10.80;99.90;;;;;;5037840;28;20064;-75
2022/09/11 03:41:20;;;;;;;5.38;0.52;;;10.80;99.90;;;;;;5037707;28;20045;-76
2022/09/11 03:43:45;;;;;;;1.08;1.00;;;10.90;99.90;;;;;;5037865;28;20048;-75
2022/09/11 03:46:11;;;;;;;0.98;0.70;;;11.10;99.90;;;;;;5038314;28;20045;-73
2022/09/11 03:48:36;;;;;;;1.65;1.13;;;11.20;99.90;;;;;;5038219;28;20101;-74
2022/09/11 03:51:04;;;;;;;0.65;0.52;;;11.20;99.90;;;;;;5038378;28;20053;-76
2022/09/11 03:53:31;;;;;;;2.72;1.25;;;11.20;99.90;;;;;;5037632;28;20050;-76
2022/09/11 03:55:57;;;;;;;1.05;0.65;;;11.10;99.90;;;;;;5036969;28;20121;-76
2022/09/11 03:58:23;;;;;;;0.77;0.73;;;11.10;99.90;;;;;;5036845;28;20052;-75
2022/09/11 04:00:49;;;;;;;0.38;0.38;;;11.00;99.90;;;;;;5036966;28;20050;-74
2022/09/11 04:03:15;;;;;;;0.28;0.28;;;11.00;99.90;;;;;;5036481;28;20480;-75
2022/09/11 04:05:45;;;;;;;2.10;0.52;;;11.50;99.90;;;;;;5037001;28;20037;-75
2022/09/11 04:08:12;;;;;;;1.75;1.20;;;10.80;99.90;;;;;;5037139;28;20484;-75
2022/09/11 04:10:37;;;;;;;0.45;0.30;;;10.80;99.90;;;;;;5037904;28;20511;-75
2022/09/11 04:13:04;;;;;;;0.22;0.20;;;10.70;99.90;;;;;;5037728;28;20116;-75
2022/09/11 04:15:31;;;;;;;0.45;0.45;;;10.60;99.90;;;;;;5038181;28;20541;-75
2022/09/11 04:17:57;;;;;;;0.17;0.17;;;10.60;99.90;;;;;;5037928;28;20049;-74
2022/09/11 04:20:23;;;;;;;0.20;0.20;;;10.50;99.90;;;;;;5037706;28;20115;-75
2022/09/11 04:22:49;;;;;;;0.20;0.20;;;10.50;99.90;;;;;;5038141;28;20049;-76
2022/09/11 04:25:14;;;;;;;0.10;0.10;;;10.40;99.90;;;;;;5038443;28;20049;-74
2022/09/11 04:27:40;;;;;;;0.30;0.20;;;10.40;99.90;;;;;;5038122;28;20045;-75
2022/09/11 04:30:06;;;;;;;0.20;0.20;;;10.40;99.90;;;;;;5038234;28;20135;-76
2022/09/11 04:32:33;;;;;;;0.30;0.30;;;10.40;99.90;;;;;;5020089;28;20049;-76
2022/09/11 04:35:00;;;;;;;0.00;0.00;;;10.50;99.90;;;;;;5037937;28;20037;-76
2022/09/11 04:37:27;;;;;;;0.47;0.47;;;10.40;99.90;;;;;;5037692;28;20059;-74
2022/09/11 04:39:53;;;;;;;0.73;0.60;;;10.50;99.90;;;;;;5038071;28;20073;-74
2022/09/11 04:42:19;;;;;;;1.70;0.85;;;10.50;99.90;;;;;;5037797;28;20168;-74
2022/09/11 04:44:45;;;;;;;2.05;1.02;;;10.50;99.90;;;;;;5038062;28;20046;-75
2022/09/11 04:47:11;;;;;;;0.40;0.40;;;10.50;99.90;;;;;;5038358;28;20053;-75
2022/09/11 04:49:37;;;;;;;1.50;0.85;;;10.50;99.90;;;;;;5020364;28;20045;-75
2022/09/11 04:52:04;;;;;;;0.15;0.15;;;10.50;99.90;;;;;;5037109;28;20042;-76
2022/09/11 04:54:32;;;;;;;0.25;0.25;;;10.50;99.90;;;;;;5037018;28;20496;-76
2022/09/11 04:57:00;;;;;;;0.22;0.22;;;10.70;99.90;;;;;;5036945;28;20053;-75
2022/09/11 04:59:26;;;;;;;0.57;0.57;;;10.50;99.90;;;;;;5036972;28;20064;-74
2022/09/11 05:01:53;;;;;;;1.75;1.10;;;10.50;99.90;;;;;;5037022;28;20044;-76
2022/09/11 05:04:19;;;;;;;0.03;0.03;;;10.50;99.90;;;;;;5019843;28;20053;-75
2022/09/11 05:06:47;;;;;;;0.98;0.75;;;10.50;99.90;;;;;;5037154;28;20112;-75
2022/09/11 05:09:14;;;;;;;0.28;0.28;;;10.50;99.90;;;;;;5037151;28;20502;-75
2022/09/11 05:11:40;;;;;;;1.45;1.08;;;10.60;99.90;;;;;;5019160;28;20121;-75
2022/09/11 05:14:06;;;;;;;0.22;0.00;;;10.50;99.90;;;;;;5037711;28;20073;-75
2022/09/11 05:16:33;;;;;;;0.20;0.20;;;10.50;99.90;;;;;;5034791;28;20042;-76
2022/09/11 05:19:00;;;;;;;0.55;0.55;;;10.60;99.90;;;;;;5033774;28;20041;-76
2022/09/11 05:21:27;;;;;;;0.20;0.20;;;10.50;99.90;;;;;;5033498;28;20046;-74
2022/09/11 05:23:54;;;;;;;1.23;0.88;;;10.60;99.90;;;;;;5015636;28;20049;-75
2022/09/11 05:26:25;;;;;;;1.27;1.00;;;10.50;99.90;;;;;;5033144;28;20041;-75
2022/09/11 05:28:55;;;;;;;0.90;0.80;;;10.60;99.90;;;;;;5015565;28;20095;-74
2022/09/11 05:31:21;;;;;;;0.30;0.30;;;10.60;99.90;;;;;;5033971;28;20400;-75
2022/09/11 05:33:47;;;;;;;0.75;0.65;;;10.60;99.90;;;;;;5035674;28;20488;-76
2022/09/11 05:36:15;;;;;;;0.10;0.10;;;10.70;99.90;;;;;;5036748;28;20095;-75
2022/09/11 05:38:41;;;;;;;0.35;0.35;;;10.70;99.90;;;;;;5036927;28;20037;-76
2022/09/11 05:41:10;;;;;;;0.00;0.00;;;10.80;99.90;;;;;;5037518;28;20102;-75
2022/09/11 05:43:37;;;;;;;0.10;0.10;;;10.70;99.90;;;;;;5037453;28;20034;-75
2022/09/11 05:46:03;;;;;;;0.10;0.10;;;10.80;99.90;;;;;;5037537;28;20080;-75
2022/09/11 05:48:30;;;;;;;0.40;0.25;;;10.80;99.90;;;;;;5037919;28;20037;-75
2022/09/11 05:51:01;;;;;;;1.05;0.77;;;10.90;99.90;;;;;;5037587;28;20046;-75
2022/09/11 05:53:29;;;;;;;5.68;0.82;;;11.00;99.90;;;;;;5037140;28;20492;-76
2022/09/11 05:55:54;;;;;;;0.38;0.32;;;11.00;99.90;;;;;;5037193;28;20041;-74
2022/09/11 05:58:21;;;;;;;1.45;0.90;;;11.10;99.90;;;;;;5037120;28;20050;-75
2022/09/11 06:00:47;;;;;;;0.00;0.00;;;11.20;99.90;;;;;;5036788;28;20045;-75
2022/09/11 06:03:13;;;;;;;2.20;0.93;;;11.30;99.90;;;;;;5037011;28;20400;-74
2022/09/11 06:05:39;;;;;;;0.10;0.10;;;11.40;99.90;;;;;;5037030;28;20052;-75
2022/09/11 06:08:06;;;;;;;0.20;0.20;;;11.60;99.90;;;;;;5036629;28;20048;-75
2022/09/11 06:10:32;;;;;;;0.32;0.30;;;11.70;99.90;;;;;;5036568;28;20045;-75
2022/09/11 06:12:58;;;;;;;2.10;0.52;;;12.40;99.90;;;;;;5036968;28;20049;-74
2022/09/11 06:15:24;;;;;;;1.73;0.77;;;12.60;99.90;;;;;;5036706;28;20052;-75
2022/09/11 06:17:49;;;;;;;1.98;1.55;;;13.10;99.90;;;;;;5036623;28;20060;-74
2022/09/11 06:20:15;;;;;;;1.17;1.00;;;13.60;99.90;;;;;;5036388;28;20116;-75
2022/09/11 06:22:41;;;;;;;1.00;0.73;;;14.00;99.90;;;;;;5037092;28;20041;-75
2022/09/11 06:25:07;;;;;;;0.93;0.88;;;14.30;99.90;;;;;;5036401;28;20518;-75
2022/09/11 06:27:33;;;;;;;0.28;0.28;;;14.70;99.90;;;;;;5036339;28;20566;-75
2022/09/11 06:29:59;;;;;;;0.47;0.38;;;15.00;99.90;;;;;;5035688;28;20037;-75
2022/09/11 06:32:24;;;;;;;0.85;0.70;;;15.40;99.90;;;;;;5017457;28;20047;-76
2022/09/11 06:34:50;;;;;;;1.17;0.82;;;15.70;99.90;;;;;;5035326;28;20053;-75
2022/09/11 06:37:16;;;;;;;0.17;0.17;;;15.90;99.90;;;;;;5034790;28;20120;-76
2022/09/11 06:39:41;;;;;;;0.35;0.28;;;16.10;99.90;;;;;;5034892;28;20068;-76
2022/09/11 06:42:07;;;;;;;1.08;0.80;;;16.20;99.90;;;;;;5034879;28;20124;-75
2022/09/11 06:44:33;;;;;;;9.52;1.30;;;16.40;99.90;;;;;;5033431;28;20046;-74
2022/09/11 06:46:59;;;;;;;0.05;0.05;;;16.60;99.90;;;;;;5034483;28;20103;-74
2022/09/11 06:49:25;;;;;;;0.20;0.20;;;16.90;99.90;;;;;;5034336;28;20085;-76
2022/09/11 06:51:52;;;;;;;0.20;0.20;;;16.90;99.90;;;;;;5034283;28;20038;-75
2022/09/11 06:54:18;;;;;;;0.00;0.00;;;16.60;99.90;;;;;;5034436;28;20053;-76
2022/09/11 06:56:44;;;;;;;0.00;0.00;;;16.30;99.90;;;;;;5033914;28;20053;-75
2022/09/11 06:59:10;;;;;;;1.02;0.90;;;16.00;99.90;;;;;;5034305;28;20045;-74
2022/09/11 07:01:36;;;;;;;0.13;0.08;;;15.80;99.90;;;;;;5034077;28;20056;-75
2022/09/11 07:04:02;;;;;;;0.10;0.10;;;15.70;99.90;;;;;;5034162;28;20067;-75
2022/09/11 07:06:31;;;;;;;1.08;0.73;;;15.60;99.90;;;;;;5034010;28;20049;-76
2022/09/11 07:09:02;;;;;;;0.40;0.40;;;15.50;99.90;;;;;;5034148;28;20049;-73
2022/09/11 07:11:33;;;;;;;1.42;0.80;;;15.60;99.90;;;;;;5034037;28;20052;-75
2022/09/11 07:14:00;;;;;;;0.52;0.52;;;15.60;99.90;;;;;;5034325;28;20117;-74
2022/09/11 07:16:26;;;;;;;0.40;0.30;;;15.70;99.90;;;;;;5034170;28;20538;-75
2022/09/11 07:18:51;;;;;;;0.77;0.60;;;15.70;99.90;;;;;;5034222;28;20045;-75
2022/09/11 07:21:22;;;;;;;0.65;0.43;;;15.70;99.90;;;;;;5034191;28;20041;-74
2022/09/11 07:23:50;;;;;;;1.20;0.93;;;15.70;99.90;;;;;;5034257;28;20084;-74
2022/09/11 07:26:17;;;;;;;0.52;0.45;;;16.10;99.90;;;;;;5034298;28;20056;-75
2022/09/11 07:28:43;;;;;;;0.22;0.22;;;15.90;99.90;;;;;;5034150;28;20077;-75
2022/09/11 07:31:11;;;;;;;0.88;0.65;;;16.00;99.90;;;;;;5034589;28;20073;-75
2022/09/11 07:33:38;;;;;;;0.25;0.25;;;16.00;99.90;;;;;;5034795;28;20092;-74
2022/09/11 07:36:11;;;;;;;0.75;0.55;;;16.70;99.90;;;;;;5034524;28;20049;-75
2022/09/11 07:38:42;;;;;;;0.10;0.10;;;16.10;99.90;;;;;;5034336;28;20045;-74
2022/09/11 07:41:09;;;;;;;0.20;0.20;;;16.20;99.90;;;;;;5034407;28;20047;-74
2022/09/11 07:43:36;;;;;;;0.98;0.38;;;16.40;99.90;;;;;;5034069;28;20503;-76
2022/09/11 07:46:03;;;;;;;0.00;0.00;;;16.20;99.90;;;;;;5034681;28;20484;-73
2022/09/11 07:48:29;;;;;;;3.58;1.27;;;16.30;99.90;;;;;;5033872;28;20518;-74
2022/09/11 07:51:03;;;;;;;1.88;1.30;;;16.50;99.90;;;;;;5033696;28;20060;-74
2022/09/11 07:53:37;;;;;;;2.50;1.00;;;16.60;99.90;;;;;;5034111;28;20128;-75
2022/09/11 07:56:04;;;;;;;1.70;1.17;;;16.70;99.90;;;;;;5015983;28;20048;-75
2022/09/11 07:58:34;;;;;;;0.63;0.63;;;16.70;99.90;;;;;;5033828;28;20400;-76
2022/09/11 08:01:02;;;;;;;0.35;0.35;;;16.90;99.90;;;;;;5033976;28;20422;-75
2022/09/11 08:03:29;;;;;;;0.30;0.30;;;17.00;99.90;;;;;;5033739;28;20088;-75
2022/09/11 08:05:59;;;;;;;0.45;0.40;;;17.10;99.90;;;;;;5033483;28;20057;-74
2022/09/11 08:08:28;;;;;;;1.00;0.90;;;17.40;99.90;;;;;;5032874;28;20041;-75
2022/09/11 08:10:55;;;;;;;0.95;0.77;;;17.40;99.90;;;;;;5033409;28;20045;-75
2022/09/11 08:13:21;;;;;;;0.95;0.38;;;17.40;99.90;;;;;;5034292;28;20392;-75
2022/09/11 08:15:48;;;;;;;0.77;0.43;;;17.80;99.90;;;;;;5015863;28;20369;-75
2022/09/11 08:18:13;;;;;;;0.47;0.40;;;18.50;99.90;;;;;;5033508;28;20041;-75
2022/09/11 08:20:39;;;;;;;0.25;0.20;;;18.70;99.90;;;;;;5033487;28;20412;-76
2022/09/11 08:23:05;;;;;;;0.43;0.43;;;18.70;99.90;;;;;;5033081;28;20038;-75
2022/09/11 08:25:30;;;;;;;0.45;0.35;;;18.80;99.90;;;;;;5015747;28;20111;-76
2022/09/11 08:27:56;;;;;;;0.52;0.40;;;18.60;99.90;;;;;;5033449;28;20033;-75
2022/09/11 08:30:22;;;;;;;1.15;0.63;;;19.40;99.90;;;;;;5033606;28;20450;-76
2022/09/11 08:32:47;;;;;;;0.38;0.38;;;20.60;99.90;;;;;;5033491;28;20053;-75
2022/09/11 08:35:13;;;;;;;0.38;0.38;;;21.60;99.90;;;;;;5033123;28;20033;-74
2022/09/11 08:37:39;;;;;;;0.95;0.68;;;22.70;99.90;;;;;;5033954;28;20052;-76
2022/09/11 08:40:06;;;;;;;0.13;0.10;;;23.50;99.90;;;;;;5033209;28;20048;-74
2022/09/11 08:42:34;;;;;;;0.55;0.40;;;24.30;99.90;;;;;;5032914;28;20164;-75
2022/09/11 08:45:03;;;;;;;1.17;0.38;;;24.90;99.90;;;;;;5032699;28;20556;-75
2022/09/11 08:47:34;;;;;;;2.03;0.38;;;24.30;99.90;;;;;;5032614;28;20048;-74
2022/09/11 08:50:06;;;;;;;0.20;0.20;;;24.00;99.90;;;;;;5032829;28;20072;-77
2022/09/11 08:52:34;;;;;;;0.17;0.17;;;24.40;99.90;;;;;;5032342;28;20045;-76
2022/09/11 08:55:01;;;;;;;5.53;1.45;;;24.70;99.90;;;;;;5032492;28;20041;-75
2022/09/11 08:57:53;;;;;;;1.38;0.32;;;24.30;99.90;;;;;;5032383;28;20057;-76
2022/09/11 09:00:26;;;;;;;0.63;0.38;;;23.70;99.90;;;;;;5032443;28;20049;-76
2022/09/11 09:03:01;;;;;;;0.45;0.45;;;23.20;99.90;;;;;;5032417;28;20069;-76
2022/09/11 09:05:51;;;;;;;0.28;0.10;;;22.40;99.90;;;;;;5032604;28;20040;-75
2022/09/11 09:08:36;;;;;;;0.00;0.00;;;21.90;99.90;;;;;;5034588;28;20048;-75
2022/09/11 09:11:15;;;;;;;0.20;0.20;;;22.00;99.90;;;;;;5036304;28;20049;-76
2022/09/11 09:14:08;;;;;;;0.25;0.22;;;22.80;99.90;;;;;;5036339;28;20049;-75
2022/09/11 09:16:58;;;;;;;0.10;0.10;;;22.70;99.90;;;;;;5036002;28;20561;-75
2022/09/11 09:19:42;;;;;;;0.00;0.00;;;22.70;99.90;;;;;;5018510;28;20128;-76
2022/09/11 09:22:11;;;;;;;0.00;0.00;;;22.50;99.90;;;;;;5035944;28;20399;-75
2022/09/11 09:24:49;;;;;;;0.00;0.00;;;22.40;99.90;;;;;;5035964;28;20049;-75
2022/09/11 09:27:33;;;;;;;0.13;0.10;;;22.40;99.90;;;;;;5035994;28;20045;-75
2022/09/11 09:30:04;;;;;;;0.55;0.50;;;22.90;99.90;;;;;;5035939;28;20081;-76
2022/09/11 09:32:59;;;;;;;0.00;0.00;;;23.50;99.90;;;;;;5036010;28;20430;-75
2022/09/11 09:35:31;;;;;;;0.00;0.00;;;24.20;99.90;;;;;;5035981;28;20399;-75
2022/09/11 09:37:58;;;;;;;0.77;0.25;;;24.30;99.90;;;;;;5035689;28;20116;-75
2022/09/11 09:40:24;;;;;;;0.95;0.30;;;24.10;99.90;;;;;;5035615;28;20121;-76
2022/09/11 09:43:10;;;;;;;0.00;0.00;;;23.90;99.90;;;;;;5035778;28;20042;-75
2022/09/11 09:45:48;;;;;;;0.45;0.28;;;23.90;99.90;;;;;;5035681;28;20147;-75
2022/09/11 09:48:14;;;;;;;0.20;0.10;;;23.50;99.90;;;;;;5035490;28;20056;-74
2022/09/11 09:50:43;;;;;;;0.20;0.20;;;23.30;99.90;;;;;;5035452;28;20124;-75
2022/09/11 09:53:51;;;;;;;0.22;0.22;;;23.00;99.90;;;;;;5035343;28;20052;-75
2022/09/11 09:56:19;;;;;;;0.00;0.00;;;23.10;99.90;;;;;;5025137;28;20095;-75
2022/09/11 09:58:55;;;;;;;0.00;0.00;;;22.70;99.90;;;;;;5017763;28;20406;-75
2022/09/11 10:01:43;;;;;;;0.98;0.43;;;22.60;99.90;;;;;;5035223;28;20052;-75
2022/09/11 10:04:21;;;;;;;0.00;0.00;;;22.40;99.90;;;;;;5035372;28;20224;-76
2022/09/11 10:06:50;;;;;;;0.00;0.00;;;22.30;99.90;;;;;;5035231;28;20144;-76
2022/09/11 10:09:28;;;;;;;0.00;0.00;;;22.70;99.90;;;;;;5035131;28;20434;-75
2022/09/11 10:12:06;;;;;;;0.25;0.17;;;23.10;99.90;;;;;;5035388;28;20048;-74
2022/09/11 10:14:41;;;;;;;0.10;0.10;;;23.40;99.90;;;;;;5035378;28;20443;-76
2022/09/11 10:17:22;;;;;;;0.25;0.22;;;23.60;99.90;;;;;;5035041;28;20073;-76
2022/09/11 10:19:49;;;;;;;0.55;0.32;;;23.60;99.90;;;;;;5034602;28;20059;-75
2022/09/11 10:22:21;;;;;;;0.00;0.00;;;23.30;99.90;;;;;;5034836;28;20121;-75
2022/09/11 10:24:58;;;;;;;1.52;0.32;;;22.90;99.90;;;;;;5035060;28;20072;-75
2022/09/11 10:27:23;;;;;;;0.00;0.00;;;22.80;99.90;;;;;;5034964;28;20041;-76
2022/09/11 10:29:50;;;;;;;0.10;0.10;;;22.70;99.90;;;;;;5034861;28;20518;-76
2022/09/11 10:32:16;;;;;;;0.00;0.00;;;21.80;99.90;;;;;;5034587;28;20053;-75
2022/09/11 10:34:42;;;;;;;0.00;0.00;;;21.70;99.90;;;;;;5034435;28;20037;-75
2022/09/11 10:37:13;;;;;;;1.05;0.30;;;21.80;99.90;;;;;;5034754;28;20037;-75
2022/09/11 10:39:42;;;;;;;0.00;0.00;;;22.20;99.90;;;;;;5034703;28;20049;-76
2022/09/11 10:42:20;;;;;;;0.00;0.00;;;23.00;99.90;;;;;;5034686;28;20494;-75
2022/09/11 10:44:47;;;;;;;0.00;0.00;;;23.60;99.90;;;;;;5034585;28;20047;-74
2022/09/11 10:47:25;;;;;;;0.28;0.22;;;23.80;99.90;;;;;;5034276;28;20100;-75
2022/09/11 10:50:16;;;;;;;0.15;0.10;;;24.30;97.90;;;;;;5034500;28;20060;-75
2022/09/11 10:53:13;;;;;;;0.00;0.00;;;25.10;99.90;;;;;;5034236;28;20049;-75
2022/09/11 10:55:44;;;;;;;0.00;0.00;;;25.70;95.70;;;;;;5034165;28;20561;-75
2022/09/11 10:58:17;;;;;;;0.17;0.17;;;25.80;96.10;;;;;;5033911;28;20163;-75
2022/09/11 11:00:44;;;;;;;0.05;0.05;;;25.50;59.80;;;;;;5034211;28;20064;-75
2022/09/11 11:03:23;;;;;;;0.00;0.00;;;25.20;99.90;;;;;;5034055;28;20539;-75
2022/09/11 11:06:04;;;;;;;0.75;0.25;;;24.80;93.90;;;;;;5033999;28;20373;-75
2022/09/11 11:09:02;;;;;;;0.00;0.00;;;24.30;99.90;;;;;;5033884;28;20488;-76
2022/09/11 11:11:54;;;;;;;0.00;0.00;;;23.30;99.90;;;;;;5033988;28;20476;-74
2022/09/11 11:14:36;;;;;;;0.13;0.13;;;21.90;99.90;;;;;;5034239;28;20049;-74
2022/09/11 11:17:08;;;;;;;0.00;0.00;;;20.60;99.90;;;;;;5033892;28;20041;-75
2022/09/11 11:19:37;;;;;;;5.45;0.77;;;19.50;99.90;;;;;;5035404;28;20045;-76
2022/09/11 11:22:41;;;;;;;0.55;0.55;;;18.30;99.90;;;;;;5035393;28;20046;-76
2022/09/11 11:25:45;;;;;;;0.00;0.00;;;17.70;99.90;;;;;;5034166;28;20136;-77
2022/09/11 11:28:29;;;;;;;1.25;0.15;;;17.30;99.90;;;;;;5017344;28;20128;-76
2022/09/11 11:31:26;;;;;;;0.08;0.08;;;17.20;99.90;;;;;;5035329;28;20045;-76
2022/09/11 11:34:08;;;;;;;0.13;0.10;;;17.10;99.90;;;;;;5030358;28;20191;-76
2022/09/11 11:37:00;;;;;;;2.45;0.82;;;17.10;99.90;;;;;;5035886;28;20053;-76
2022/09/11 11:39:56;;;;;;;2.28;0.55;;;17.20;99.90;;;;;;5036812;28;20041;-76
2022/09/11 11:42:27;;;;;;;0.10;0.07;;;17.30;99.90;;;;;;5038547;28;20041;-75
2022/09/11 11:45:03;;;;;;;0.08;0.08;;;17.30;99.90;;;;;;5038746;28;20276;-75
2022/09/11 11:47:35;;;;;;;0.00;0.00;;;17.50;99.90;;;;;;5037614;28;20041;-75
2022/09/11 11:50:10;;;;;;;0.28;0.10;;;17.70;99.90;;;;;;5037364;28;20045;-75
2022/09/11 11:53:07;;;;;;;0.10;0.10;;;18.00;99.90;;;;;;5037493;28;20120;-75
2022/09/11 11:55:39;;;;;;;;;;;18.00;99.90;;;;;;5037798;28;20046;-74
2022/09/11 11:58:21;;;;;;;0.00;0.00;;;18.20;99.90;;;;;;5036237;28;19928;-74
2022/09/11 12:00:56;;;;;;;0.20;0.20;;;18.30;99.90;;;;;;5036375;28;20523;-75
2022/09/11 12:03:37;;;;;;;4.00;1.23;;;18.60;99.90;;;;;;5035398;28;20050;-74
2022/09/11 12:06:06;;;;;;;5.07;0.60;;;18.80;99.90;;;;;;5035482;28;20441;-75
2022/09/11 12:08:31;;;;;;;0.00;0.00;;;18.90;99.90;;;;;;5035126;28;20033;-74
2022/09/11 12:11:03;;;;;;;0.28;0.13;;;19.10;99.90;;;;;;5034980;28;20033;-74
2022/09/11 12:13:35;;;;;;;0.30;0.30;;;19.40;99.90;;;;;;5035232;28;20560;-75
2022/09/11 12:16:13;;;;;;;0.82;0.30;;;19.50;99.90;;;;;;5034976;28;20045;-75
2022/09/11 12:18:41;;;;;;;0.68;0.55;;;19.30;99.90;;;;;;5034497;28;20049;-74
2022/09/11 12:21:21;;;;;;;0.17;0.10;;;19.20;99.90;;;;;;5034759;28;20037;-75
2022/09/11 12:23:47;;;;;;;0.60;0.55;;;19.10;99.90;;;;;;5034753;28;20049;-74
2022/09/11 12:26:20;;;;;;;0.10;0.10;;;19.00;99.90;;;;;;5035160;28;20099;-74
2022/09/11 12:28:47;;;;;;;0.20;0.20;;;19.00;99.90;;;;;;5000562;28;20053;-74
2022/09/11 12:31:15;;;;;;;0.00;0.00;;;19.00;99.90;;;;;;5033968;28;20048;-74
2022/09/11 12:33:45;;;;;;;2.08;0.35;;;19.10;99.90;;;;;;5033854;28;20136;-74
2022/09/11 12:36:45;;;;;;;0.00;0.00;;;19.10;99.90;;;;;;5034075;28;20143;-73
2022/09/11 12:39:21;;;;;;;0.57;0.35;;;19.00;99.90;;;;;;5016648;28;20501;-75
2022/09/11 12:41:46;;;;;;;;;;;18.90;99.90;;;;;;5035715;28;20048;-74
2022/09/11 12:44:52;;;;;;;0.00;0.00;;;18.70;99.90;;;;;;5038000;28;20315;-73
2022/09/11 12:47:38;;;;;;;0.00;0.00;;;18.90;99.90;;;;;;5037426;28;20103;-73
2022/09/11 12:50:03;;;;;;;0.32;0.10;;;19.20;99.90;;;;;;5037209;28;20091;-73
2022/09/11 12:52:36;;;;;;;0.00;0.00;;;20.20;99.90;;;;;;5037202;28;20072;-74
2022/09/11 12:55:25;;;;;;;0.80;0.63;;;21.90;99.90;;;;;;5036936;28;20045;-73
2022/09/11 12:57:51;;;;;;;0.43;0.35;;;22.00;99.90;;;;;;5036603;28;20064;-75
2022/09/11 13:00:27;;;;;;;0.35;0.35;;;22.50;99.90;;;;;;5018885;28;20049;-74
2022/09/11 13:02:55;;;;;;;0.13;0.10;;;22.50;99.90;;;;;;5037018;28;20045;-74
2022/09/11 13:05:27;;;;;;;0.13;0.13;;;22.70;99.90;;;;;;5036500;28;20056;-75
2022/09/11 13:07:59;;;;;;;0.32;0.30;;;22.80;99.90;;;;;;5036386;28;20045;-75
2022/09/11 13:10:37;;;;;;;0.00;0.00;;;22.90;99.90;;;;;;5036514;28;20038;-75
2022/09/11 13:13:05;;;;;;;0.10;0.10;;;22.90;99.90;;;;;;5036173;28;20527;-75
2022/09/11 13:15:43;;;;;;;0.00;0.00;;;23.30;99.90;;;;;;5036332;28;20517;-74